sensor_id;sensor_type;location;lat;lon;timestamp;P1;durP1;ratioP1;P2;durP2;ratioP2
34200;SDS011;20469;55.638;37.670;2023-02-28T00:01:33;9.70;;;5.80;;
34200;SDS011;20469;55.638;37.670;2023-02-28T00:04:01;10.70;;;6.60;;
34200;SDS011;20469;55.638;37.670;2023-02-28T00:06:29;12.13;;;7.53;;
34200;SDS011;20469;55.638;37.670;2023-02-28T00:08:59;11.00;;;6.90;;
34200;SDS011;20469;55.638;37.670;2023-02-28T00:11:29;10.77;;;6.33;;
34200;SDS011;20469;55.638;37.670;2023-02-28T00:13:57;9.87;;;6.40;;
34200;SDS011;20469;55.638;37.670;2023-02-28T00:16:25;10.97;;;6.53;;
34200;SDS011;20469;55.638;37.670;2023-02-28T00:18:53;9.23;;;6.37;;
34200;SDS011;20469;55.638;37.670;2023-02-28T00:21:21;9.93;;;6.13;;
34200;SDS011;20469;55.638;37.670;2023-02-28T00:23:50;12.27;;;6.90;;
34200;SDS011;20469;55.638;37.670;2023-02-28T00:26:17;7.60;;;5.50;;
34200;SDS011;20469;55.638;37.670;2023-02-28T00:28:47;10.20;;;6.50;;
34200;SDS011;20469;55.638;37.670;2023-02-28T00:31:19;6.72;;;4.13;;
34200;SDS011;20469;55.638;37.670;2023-02-28T00:33:47;9.93;;;6.47;;
34200;SDS011;20469;55.638;37.670;2023-02-28T00:36:14;9.03;;;5.70;;
34200;SDS011;20469;55.638;37.670;2023-02-28T00:38:42;9.53;;;6.27;;
34200;SDS011;20469;55.638;37.670;2023-02-28T00:41:10;11.23;;;6.03;;
34200;SDS011;20469;55.638;37.670;2023-02-28T00:43:42;9.93;;;5.90;;
34200;SDS011;20469;55.638;37.670;2023-02-28T00:46:09;10.43;;;6.40;;
34200;SDS011;20469;55.638;37.670;2023-02-28T00:48:37;10.53;;;6.23;;
34200;SDS011;20469;55.638;37.670;2023-02-28T00:51:07;9.57;;;6.07;;
34200;SDS011;20469;55.638;37.670;2023-02-28T00:53:35;10.60;;;6.83;;
34200;SDS011;20469;55.638;37.670;2023-02-28T00:56:03;9.97;;;7.07;;
34200;SDS011;20469;55.638;37.670;2023-02-28T00:58:31;9.70;;;6.50;;
34200;SDS011;20469;55.638;37.670;2023-02-28T01:00:59;10.30;;;6.87;;
34200;SDS011;20469;55.638;37.670;2023-02-28T01:03:26;9.70;;;6.33;;
34200;SDS011;20469;55.638;37.670;2023-02-28T01:05:54;10.20;;;6.73;;
34200;SDS011;20469;55.638;37.670;2023-02-28T01:08:22;9.50;;;6.80;;
34200;SDS011;20469;55.638;37.670;2023-02-28T01:10:50;9.07;;;5.67;;
34200;SDS011;20469;55.638;37.670;2023-02-28T01:13:18;8.87;;;5.90;;
34200;SDS011;20469;55.638;37.670;2023-02-28T01:15:50;9.43;;;6.23;;
34200;SDS011;20469;55.638;37.670;2023-02-28T01:18:22;9.67;;;6.47;;
34200;SDS011;20469;55.638;37.670;2023-02-28T01:20:51;9.00;;;5.83;;
34200;SDS011;20469;55.638;37.670;2023-02-28T01:23:19;7.17;;;4.63;;
34200;SDS011;20469;55.638;37.670;2023-02-28T01:25:50;12.07;;;6.30;;
34200;SDS011;20469;55.638;37.670;2023-02-28T01:28:18;10.43;;;6.10;;
34200;SDS011;20469;55.638;37.670;2023-02-28T01:30:50;9.97;;;5.93;;
34200;SDS011;20469;55.638;37.670;2023-02-28T01:33:18;7.23;;;4.20;;
34200;SDS011;20469;55.638;37.670;2023-02-28T01:35:47;7.90;;;4.97;;
34200;SDS011;20469;55.638;37.670;2023-02-28T01:38:15;11.50;;;6.70;;
34200;SDS011;20469;55.638;37.670;2023-02-28T01:40:48;9.97;;;6.80;;
34200;SDS011;20469;55.638;37.670;2023-02-28T01:43:22;11.60;;;6.70;;
34200;SDS011;20469;55.638;37.670;2023-02-28T01:45:52;7.53;;;5.13;;
34200;SDS011;20469;55.638;37.670;2023-02-28T01:48:23;9.00;;;5.20;;
34200;SDS011;20469;55.638;37.670;2023-02-28T01:50:53;9.02;;;4.97;;
34200;SDS011;20469;55.638;37.670;2023-02-28T01:53:29;10.57;;;5.87;;
34200;SDS011;20469;55.638;37.670;2023-02-28T01:56:04;8.63;;;5.07;;
34200;SDS011;20469;55.638;37.670;2023-02-28T01:58:34;7.77;;;5.57;;
34200;SDS011;20469;55.638;37.670;2023-02-28T02:01:03;8.90;;;5.53;;
34200;SDS011;20469;55.638;37.670;2023-02-28T02:03:31;8.97;;;4.83;;
34200;SDS011;20469;55.638;37.670;2023-02-28T02:05:59;8.33;;;5.60;;
34200;SDS011;20469;55.638;37.670;2023-02-28T02:08:28;9.23;;;5.07;;
34200;SDS011;20469;55.638;37.670;2023-02-28T02:10:59;8.37;;;5.67;;
34200;SDS011;20469;55.638;37.670;2023-02-28T02:13:30;8.27;;;5.67;;
34200;SDS011;20469;55.638;37.670;2023-02-28T02:19:30;8.57;;;5.03;;
34200;SDS011;20469;55.638;37.670;2023-02-28T02:25:15;7.20;;;4.93;;
34200;SDS011;20469;55.638;37.670;2023-02-28T02:28:05;6.67;;;4.40;;
34200;SDS011;20469;55.638;37.670;2023-02-28T02:36:39;6.93;;;4.67;;
34200;SDS011;20469;55.638;37.670;2023-02-28T02:41:58;6.73;;;4.33;;
34200;SDS011;20469;55.638;37.670;2023-02-28T02:44:52;9.30;;;5.22;;
34200;SDS011;20469;55.638;37.670;2023-02-28T02:47:30;7.80;;;4.30;;
34200;SDS011;20469;55.638;37.670;2023-02-28T02:50:05;6.33;;;4.43;;
34200;SDS011;20469;55.638;37.670;2023-02-28T02:52:36;7.05;;;4.47;;
34200;SDS011;20469;55.638;37.670;2023-02-28T02:55:09;9.17;;;5.70;;
34200;SDS011;20469;55.638;37.670;2023-02-28T03:00:47;7.40;;;4.80;;
34200;SDS011;20469;55.638;37.670;2023-02-28T03:03:18;7.67;;;4.77;;
34200;SDS011;20469;55.638;37.670;2023-02-28T03:05:59;8.83;;;4.90;;
34200;SDS011;20469;55.638;37.670;2023-02-28T03:08:29;8.38;;;5.38;;
34200;SDS011;20469;55.638;37.670;2023-02-28T03:19:13;5.83;;;4.30;;
34200;SDS011;20469;55.638;37.670;2023-02-28T03:24:59;5.70;;;4.00;;
34200;SDS011;20469;55.638;37.670;2023-02-28T03:27:33;8.17;;;4.63;;
34200;SDS011;20469;55.638;37.670;2023-02-28T03:30:18;3.33;;;2.60;;
34200;SDS011;20469;55.638;37.670;2023-02-28T03:35:43;6.67;;;4.03;;
34200;SDS011;20469;55.638;37.670;2023-02-28T03:38:20;6.27;;;4.20;;
34200;SDS011;20469;55.638;37.670;2023-02-28T03:40:55;7.60;;;4.23;;
34200;SDS011;20469;55.638;37.670;2023-02-28T03:43:40;3.33;;;2.10;;
34200;SDS011;20469;55.638;37.670;2023-02-28T03:46:12;6.78;;;4.18;;
34200;SDS011;20469;55.638;37.670;2023-02-28T03:48:45;6.53;;;4.23;;
34200;SDS011;20469;55.638;37.670;2023-02-28T03:51:22;7.90;;;4.37;;
34200;SDS011;20469;55.638;37.670;2023-02-28T03:53:54;5.60;;;3.77;;
34200;SDS011;20469;55.638;37.670;2023-02-28T03:59:06;7.10;;;4.40;;
34200;SDS011;20469;55.638;37.670;2023-02-28T04:01:42;6.40;;;4.50;;
34200;SDS011;20469;55.638;37.670;2023-02-28T04:04:11;5.63;;;3.60;;
34200;SDS011;20469;55.638;37.670;2023-02-28T04:06:41;6.27;;;4.13;;
34200;SDS011;20469;55.638;37.670;2023-02-28T04:09:11;6.73;;;4.00;;
34200;SDS011;20469;55.638;37.670;2023-02-28T04:11:41;5.90;;;4.13;;
34200;SDS011;20469;55.638;37.670;2023-02-28T04:14:11;5.33;;;3.90;;
34200;SDS011;20469;55.638;37.670;2023-02-28T04:16:40;5.13;;;3.20;;
34200;SDS011;20469;55.638;37.670;2023-02-28T04:19:10;7.23;;;3.97;;
34200;SDS011;20469;55.638;37.670;2023-02-28T04:21:49;5.20;;;3.57;;
34200;SDS011;20469;55.638;37.670;2023-02-28T04:24:19;6.33;;;4.40;;
34200;SDS011;20469;55.638;37.670;2023-02-28T04:26:52;5.47;;;3.53;;
34200;SDS011;20469;55.638;37.670;2023-02-28T04:29:28;5.83;;;3.33;;
34200;SDS011;20469;55.638;37.670;2023-02-28T04:31:57;6.00;;;3.50;;
34200;SDS011;20469;55.638;37.670;2023-02-28T04:34:27;2.83;;;2.20;;
34200;SDS011;20469;55.638;37.670;2023-02-28T04:36:56;5.00;;;3.50;;
34200;SDS011;20469;55.638;37.670;2023-02-28T04:39:38;4.40;;;3.08;;
34200;SDS011;20469;55.638;37.670;2023-02-28T04:42:06;4.30;;;2.80;;
34200;SDS011;20469;55.638;37.670;2023-02-28T04:44:34;4.57;;;2.90;;
34200;SDS011;20469;55.638;37.670;2023-02-28T04:47:02;4.90;;;3.50;;
34200;SDS011;20469;55.638;37.670;2023-02-28T04:49:29;5.30;;;3.60;;
34200;SDS011;20469;55.638;37.670;2023-02-28T04:51:59;5.77;;;4.10;;
34200;SDS011;20469;55.638;37.670;2023-02-28T04:54:27;5.03;;;3.67;;
34200;SDS011;20469;55.638;37.670;2023-02-28T04:56:55;5.57;;;3.75;;
34200;SDS011;20469;55.638;37.670;2023-02-28T04:59:23;4.28;;;3.55;;
34200;SDS011;20469;55.638;37.670;2023-02-28T05:01:50;5.82;;;3.90;;
34200;SDS011;20469;55.638;37.670;2023-02-28T05:04:18;5.32;;;3.70;;
34200;SDS011;20469;55.638;37.670;2023-02-28T05:06:45;4.72;;;3.60;;
34200;SDS011;20469;55.638;37.670;2023-02-28T05:09:13;4.78;;;3.17;;
34200;SDS011;20469;55.638;37.670;2023-02-28T05:11:41;3.92;;;3.45;;
34200;SDS011;20469;55.638;37.670;2023-02-28T05:14:10;4.85;;;3.55;;
34200;SDS011;20469;55.638;37.670;2023-02-28T05:16:39;4.75;;;3.75;;
34200;SDS011;20469;55.638;37.670;2023-02-28T05:19:07;4.22;;;3.30;;
34200;SDS011;20469;55.638;37.670;2023-02-28T05:21:39;5.95;;;3.83;;
34200;SDS011;20469;55.638;37.670;2023-02-28T05:24:11;4.55;;;3.45;;
34200;SDS011;20469;55.638;37.670;2023-02-28T05:26:39;3.97;;;2.80;;
34200;SDS011;20469;55.638;37.670;2023-02-28T05:29:09;5.53;;;3.53;;
34200;SDS011;20469;55.638;37.670;2023-02-28T05:31:37;3.58;;;2.70;;
34200;SDS011;20469;55.638;37.670;2023-02-28T05:34:05;5.60;;;3.22;;
34200;SDS011;20469;55.638;37.670;2023-02-28T05:36:33;6.28;;;3.38;;
34200;SDS011;20469;55.638;37.670;2023-02-28T05:39:07;5.18;;;3.35;;
34200;SDS011;20469;55.638;37.670;2023-02-28T05:41:43;6.03;;;2.65;;
34200;SDS011;20469;55.638;37.670;2023-02-28T05:44:10;4.33;;;3.00;;
34200;SDS011;20469;55.638;37.670;2023-02-28T05:46:39;4.70;;;3.23;;
34200;SDS011;20469;55.638;37.670;2023-02-28T05:49:07;3.87;;;2.97;;
34200;SDS011;20469;55.638;37.670;2023-02-28T05:51:35;5.00;;;2.80;;
34200;SDS011;20469;55.638;37.670;2023-02-28T05:54:06;3.60;;;2.47;;
34200;SDS011;20469;55.638;37.670;2023-02-28T05:56:34;4.60;;;3.47;;
34200;SDS011;20469;55.638;37.670;2023-02-28T05:59:04;4.13;;;2.87;;
34200;SDS011;20469;55.638;37.670;2023-02-28T06:01:53;2.47;;;2.03;;
34200;SDS011;20469;55.638;37.670;2023-02-28T06:04:20;6.50;;;3.83;;
34200;SDS011;20469;55.638;37.670;2023-02-28T06:06:57;6.17;;;3.57;;
34200;SDS011;20469;55.638;37.670;2023-02-28T06:09:25;4.70;;;3.13;;
34200;SDS011;20469;55.638;37.670;2023-02-28T06:11:53;6.27;;;3.67;;
34200;SDS011;20469;55.638;37.670;2023-02-28T06:14:20;3.20;;;2.33;;
34200;SDS011;20469;55.638;37.670;2023-02-28T06:16:48;5.33;;;2.93;;
34200;SDS011;20469;55.638;37.670;2023-02-28T06:19:16;4.27;;;2.63;;
34200;SDS011;20469;55.638;37.670;2023-02-28T06:21:44;6.10;;;3.67;;
34200;SDS011;20469;55.638;37.670;2023-02-28T06:24:11;5.07;;;3.60;;
34200;SDS011;20469;55.638;37.670;2023-02-28T06:26:39;5.47;;;3.73;;
34200;SDS011;20469;55.638;37.670;2023-02-28T06:29:07;5.30;;;3.30;;
34200;SDS011;20469;55.638;37.670;2023-02-28T06:31:35;4.03;;;3.00;;
34200;SDS011;20469;55.638;37.670;2023-02-28T06:34:03;4.53;;;3.20;;
34200;SDS011;20469;55.638;37.670;2023-02-28T06:36:31;4.83;;;3.40;;
34200;SDS011;20469;55.638;37.670;2023-02-28T06:38:59;5.37;;;3.60;;
34200;SDS011;20469;55.638;37.670;2023-02-28T06:41:27;3.60;;;3.05;;
34200;SDS011;20469;55.638;37.670;2023-02-28T06:43:59;5.15;;;2.92;;
34200;SDS011;20469;55.638;37.670;2023-02-28T06:46:27;4.65;;;2.33;;
34200;SDS011;20469;55.638;37.670;2023-02-28T06:48:55;3.90;;;2.75;;
34200;SDS011;20469;55.638;37.670;2023-02-28T06:51:22;5.13;;;3.28;;
34200;SDS011;20469;55.638;37.670;2023-02-28T06:53:51;4.10;;;2.80;;
34200;SDS011;20469;55.638;37.670;2023-02-28T06:56:19;5.95;;;3.53;;
34200;SDS011;20469;55.638;37.670;2023-02-28T06:58:48;4.38;;;3.35;;
34200;SDS011;20469;55.638;37.670;2023-02-28T07:01:16;4.95;;;2.55;;
34200;SDS011;20469;55.638;37.670;2023-02-28T07:03:46;6.63;;;3.05;;
34200;SDS011;20469;55.638;37.670;2023-02-28T07:06:13;4.65;;;2.65;;
34200;SDS011;20469;55.638;37.670;2023-02-28T07:08:41;3.42;;;2.67;;
34200;SDS011;20469;55.638;37.670;2023-02-28T07:11:08;4.15;;;2.60;;
34200;SDS011;20469;55.638;37.670;2023-02-28T07:13:36;4.00;;;2.65;;
34200;SDS011;20469;55.638;37.670;2023-02-28T07:16:04;5.32;;;3.50;;
34200;SDS011;20469;55.638;37.670;2023-02-28T07:18:36;4.65;;;3.25;;
34200;SDS011;20469;55.638;37.670;2023-02-28T07:21:05;4.80;;;3.10;;
34200;SDS011;20469;55.638;37.670;2023-02-28T07:23:35;4.55;;;3.22;;
34200;SDS011;20469;55.638;37.670;2023-02-28T07:26:05;4.45;;;2.85;;
34200;SDS011;20469;55.638;37.670;2023-02-28T07:28:33;5.22;;;3.05;;
34200;SDS011;20469;55.638;37.670;2023-02-28T07:31:04;3.85;;;2.40;;
34200;SDS011;20469;55.638;37.670;2023-02-28T07:33:36;4.70;;;3.22;;
34200;SDS011;20469;55.638;37.670;2023-02-28T07:36:05;4.90;;;3.05;;
34200;SDS011;20469;55.638;37.670;2023-02-28T07:38:35;3.60;;;2.75;;
34200;SDS011;20469;55.638;37.670;2023-02-28T07:41:04;2.05;;;1.85;;
34200;SDS011;20469;55.638;37.670;2023-02-28T07:43:32;4.55;;;2.90;;
34200;SDS011;20469;55.638;37.670;2023-02-28T07:46:07;4.38;;;2.72;;
34200;SDS011;20469;55.638;37.670;2023-02-28T07:48:36;4.22;;;2.60;;
34200;SDS011;20469;55.638;37.670;2023-02-28T07:51:07;1.98;;;1.75;;
34200;SDS011;20469;55.638;37.670;2023-02-28T07:53:35;4.53;;;3.28;;
34200;SDS011;20469;55.638;37.670;2023-02-28T07:56:02;4.00;;;2.95;;
34200;SDS011;20469;55.638;37.670;2023-02-28T07:58:30;5.10;;;2.95;;
34200;SDS011;20469;55.638;37.670;2023-02-28T08:01:04;6.13;;;3.25;;
34200;SDS011;20469;55.638;37.670;2023-02-28T08:03:34;6.63;;;3.00;;
34200;SDS011;20469;55.638;37.670;2023-02-28T08:06:03;4.18;;;3.05;;
34200;SDS011;20469;55.638;37.670;2023-02-28T08:08:32;4.68;;;3.10;;
34200;SDS011;20469;55.638;37.670;2023-02-28T08:11:04;4.40;;;2.67;;
34200;SDS011;20469;55.638;37.670;2023-02-28T08:13:32;7.10;;;3.85;;
34200;SDS011;20469;55.638;37.670;2023-02-28T08:16:00;5.03;;;3.33;;
34200;SDS011;20469;55.638;37.670;2023-02-28T08:18:29;5.28;;;3.58;;
34200;SDS011;20469;55.638;37.670;2023-02-28T08:20:56;5.75;;;3.33;;
34200;SDS011;20469;55.638;37.670;2023-02-28T08:23:24;4.32;;;2.80;;
34200;SDS011;20469;55.638;37.670;2023-02-28T08:25:55;6.57;;;3.25;;
34200;SDS011;20469;55.638;37.670;2023-02-28T08:28:23;3.88;;;3.20;;
34200;SDS011;20469;55.638;37.670;2023-02-28T08:30:53;4.43;;;3.08;;
34200;SDS011;20469;55.638;37.670;2023-02-28T08:33:21;4.13;;;2.63;;
34200;SDS011;20469;55.638;37.670;2023-02-28T08:35:52;4.82;;;3.10;;
34200;SDS011;20469;55.638;37.670;2023-02-28T08:38:21;4.30;;;3.17;;
34200;SDS011;20469;55.638;37.670;2023-02-28T08:40:49;4.43;;;3.10;;
34200;SDS011;20469;55.638;37.670;2023-02-28T08:43:23;4.05;;;3.00;;
34200;SDS011;20469;55.638;37.670;2023-02-28T08:45:52;5.50;;;3.30;;
34200;SDS011;20469;55.638;37.670;2023-02-28T08:48:27;4.00;;;3.15;;
34200;SDS011;20469;55.638;37.670;2023-02-28T08:53:33;4.90;;;3.53;;
34200;SDS011;20469;55.638;37.670;2023-02-28T08:56:03;5.22;;;3.05;;
34200;SDS011;20469;55.638;37.670;2023-02-28T08:58:37;5.85;;;3.42;;
34200;SDS011;20469;55.638;37.670;2023-02-28T09:01:13;4.35;;;3.13;;
34200;SDS011;20469;55.638;37.670;2023-02-28T09:03:45;4.13;;;3.05;;
34200;SDS011;20469;55.638;37.670;2023-02-28T09:06:15;5.78;;;3.42;;
34200;SDS011;20469;55.638;37.670;2023-02-28T09:08:45;4.07;;;2.92;;
34200;SDS011;20469;55.638;37.670;2023-02-28T09:11:13;4.82;;;3.15;;
34200;SDS011;20469;55.638;37.670;2023-02-28T09:13:41;4.80;;;3.08;;
34200;SDS011;20469;55.638;37.670;2023-02-28T09:16:10;4.63;;;3.30;;
34200;SDS011;20469;55.638;37.670;2023-02-28T09:18:39;4.40;;;2.80;;
34200;SDS011;20469;55.638;37.670;2023-02-28T09:21:08;6.00;;;3.15;;
34200;SDS011;20469;55.638;37.670;2023-02-28T09:23:40;5.32;;;3.60;;
34200;SDS011;20469;55.638;37.670;2023-02-28T09:26:17;3.97;;;2.83;;
34200;SDS011;20469;55.638;37.670;2023-02-28T09:28:46;5.78;;;3.17;;
34200;SDS011;20469;55.638;37.670;2023-02-28T09:31:15;7.35;;;3.90;;
34200;SDS011;20469;55.638;37.670;2023-02-28T09:33:48;4.05;;;2.42;;
34200;SDS011;20469;55.638;37.670;2023-02-28T09:36:17;4.57;;;2.95;;
34200;SDS011;20469;55.638;37.670;2023-02-28T09:38:46;4.85;;;2.60;;
34200;SDS011;20469;55.638;37.670;2023-02-28T09:41:16;3.95;;;2.28;;
34200;SDS011;20469;55.638;37.670;2023-02-28T09:43:53;4.97;;;2.67;;
34200;SDS011;20469;55.638;37.670;2023-02-28T09:46:32;6.43;;;3.40;;
34200;SDS011;20469;55.638;37.670;2023-02-28T09:49:05;5.55;;;3.70;;
34200;SDS011;20469;55.638;37.670;2023-02-28T09:51:52;9.05;;;3.58;;
34200;SDS011;20469;55.638;37.670;2023-02-28T09:54:28;6.43;;;3.63;;
34200;SDS011;20469;55.638;37.670;2023-02-28T10:02:54;6.28;;;3.20;;
34200;SDS011;20469;55.638;37.670;2023-02-28T10:05:32;5.53;;;3.20;;
34200;SDS011;20469;55.638;37.670;2023-02-28T10:10:47;4.78;;;3.17;;
34200;SDS011;20469;55.638;37.670;2023-02-28T10:16:16;7.95;;;3.53;;
34200;SDS011;20469;55.638;37.670;2023-02-28T10:18:52;5.28;;;3.53;;
34200;SDS011;20469;55.638;37.670;2023-02-28T10:24:15;8.32;;;4.03;;
34200;SDS011;20469;55.638;37.670;2023-02-28T10:29:45;5.95;;;3.70;;
34200;SDS011;20469;55.638;37.670;2023-02-28T10:32:22;4.35;;;3.10;;
34200;SDS011;20469;55.638;37.670;2023-02-28T10:37:46;7.22;;;3.88;;
34200;SDS011;20469;55.638;37.670;2023-02-28T10:45:28;6.85;;;3.28;;
34200;SDS011;20469;55.638;37.670;2023-02-28T10:48:23;5.35;;;3.00;;
34200;SDS011;20469;55.638;37.670;2023-02-28T10:53:37;4.15;;;2.78;;
34200;SDS011;20469;55.638;37.670;2023-02-28T10:56:26;5.25;;;3.38;;
34200;SDS011;20469;55.638;37.670;2023-02-28T10:59:37;6.97;;;4.00;;
34200;SDS011;20469;55.638;37.670;2023-02-28T11:02:10;6.13;;;3.60;;
34200;SDS011;20469;55.638;37.670;2023-02-28T11:07:25;6.00;;;3.50;;
34200;SDS011;20469;55.638;37.670;2023-02-28T11:10:06;6.53;;;3.80;;
34200;SDS011;20469;55.638;37.670;2023-02-28T11:12:49;5.72;;;3.60;;
34200;SDS011;20469;55.638;37.670;2023-02-28T11:15:27;6.50;;;4.20;;
34200;SDS011;20469;55.638;37.670;2023-02-28T11:18:00;5.80;;;3.67;;
34200;SDS011;20469;55.638;37.670;2023-02-28T11:20:48;6.28;;;3.50;;
34200;SDS011;20469;55.638;37.670;2023-02-28T11:23:18;3.80;;;2.72;;
34200;SDS011;20469;55.638;37.670;2023-02-28T11:25:54;5.10;;;3.50;;
34200;SDS011;20469;55.638;37.670;2023-02-28T11:28:29;6.47;;;3.63;;
34200;SDS011;20469;55.638;37.670;2023-02-28T11:31:00;5.43;;;3.47;;
34200;SDS011;20469;55.638;37.670;2023-02-28T11:36:54;6.15;;;4.05;;
34200;SDS011;20469;55.638;37.670;2023-02-28T12:08:49;5.55;;;3.65;;
34200;SDS011;20469;55.638;37.670;2023-02-28T12:28:28;6.57;;;4.18;;
34200;SDS011;20469;55.638;37.670;2023-02-28T12:31:03;7.13;;;3.83;;
34200;SDS011;20469;55.638;37.670;2023-02-28T12:33:40;4.18;;;2.78;;
34200;SDS011;20469;55.638;37.670;2023-02-28T12:38:50;5.07;;;3.20;;
34200;SDS011;20469;55.638;37.670;2023-02-28T12:44:12;5.88;;;3.60;;
34200;SDS011;20469;55.638;37.670;2023-02-28T12:47:09;4.40;;;3.45;;
34200;SDS011;20469;55.638;37.670;2023-02-28T12:49:44;7.03;;;4.32;;
34200;SDS011;20469;55.638;37.670;2023-02-28T12:52:18;5.13;;;3.60;;
34200;SDS011;20469;55.638;37.670;2023-02-28T12:54:53;5.00;;;3.60;;
34200;SDS011;20469;55.638;37.670;2023-02-28T13:03:52;4.47;;;3.58;;
34200;SDS011;20469;55.638;37.670;2023-02-28T13:09:15;6.07;;;3.55;;
34200;SDS011;20469;55.638;37.670;2023-02-28T13:11:48;5.75;;;3.75;;
34200;SDS011;20469;55.638;37.670;2023-02-28T13:19:42;5.43;;;3.35;;
34200;SDS011;20469;55.638;37.670;2023-02-28T13:22:55;4.88;;;4.03;;
34200;SDS011;20469;55.638;37.670;2023-02-28T13:25:56;4.65;;;3.10;;
34200;SDS011;20469;55.638;37.670;2023-02-28T13:28:11;5.35;;;3.63;;
34200;SDS011;20469;55.638;37.670;2023-02-28T13:38:38;8.30;;;3.72;;
34200;SDS011;20469;55.638;37.670;2023-02-28T13:51:54;5.93;;;3.67;;
34200;SDS011;20469;55.638;37.670;2023-02-28T13:54:39;4.47;;;3.50;;
34200;SDS011;20469;55.638;37.670;2023-02-28T13:57:44;4.80;;;3.15;;
34200;SDS011;20469;55.638;37.670;2023-02-28T14:06:34;5.32;;;3.28;;
34200;SDS011;20469;55.638;37.670;2023-02-28T14:11:53;5.55;;;3.22;;
34200;SDS011;20469;55.638;37.670;2023-02-28T14:17:02;4.80;;;3.22;;
34200;SDS011;20469;55.638;37.670;2023-02-28T14:19:31;4.93;;;3.15;;
34200;SDS011;20469;55.638;37.670;2023-02-28T14:22:04;5.15;;;3.22;;
34200;SDS011;20469;55.638;37.670;2023-02-28T14:38:55;5.88;;;3.25;;
34200;SDS011;20469;55.638;37.670;2023-02-28T14:41:31;5.22;;;3.40;;
34200;SDS011;20469;55.638;37.670;2023-02-28T14:44:13;5.53;;;3.72;;
34200;SDS011;20469;55.638;37.670;2023-02-28T14:46:43;5.57;;;3.42;;
34200;SDS011;20469;55.638;37.670;2023-02-28T14:49:35;4.43;;;3.10;;
34200;SDS011;20469;55.638;37.670;2023-02-28T14:52:17;7.75;;;4.40;;
34200;SDS011;20469;55.638;37.670;2023-02-28T14:54:46;5.13;;;3.63;;
34200;SDS011;20469;55.638;37.670;2023-02-28T14:57:32;4.20;;;3.30;;
34200;SDS011;20469;55.638;37.670;2023-02-28T15:02:43;4.63;;;2.60;;
34200;SDS011;20469;55.638;37.670;2023-02-28T15:07:39;5.00;;;3.10;;
34200;SDS011;20469;55.638;37.670;2023-02-28T15:10:27;4.88;;;3.63;;
34200;SDS011;20469;55.638;37.670;2023-02-28T15:12:58;4.43;;;3.15;;
34200;SDS011;20469;55.638;37.670;2023-02-28T15:21:25;3.90;;;3.00;;
34200;SDS011;20469;55.638;37.670;2023-02-28T15:27:12;3.92;;;3.20;;
34200;SDS011;20469;55.638;37.670;2023-02-28T15:30:08;6.22;;;3.75;;
34200;SDS011;20469;55.638;37.670;2023-02-28T15:32:42;6.10;;;3.60;;
34200;SDS011;20469;55.638;37.670;2023-02-28T15:37:57;5.60;;;3.58;;
34200;SDS011;20469;55.638;37.670;2023-02-28T15:43:04;5.63;;;3.65;;
34200;SDS011;20469;55.638;37.670;2023-02-28T15:45:52;3.97;;;3.33;;
34200;SDS011;20469;55.638;37.670;2023-02-28T15:48:29;3.63;;;2.90;;
34200;SDS011;20469;55.638;37.670;2023-02-28T15:51:05;5.95;;;3.30;;
34200;SDS011;20469;55.638;37.670;2023-02-28T15:53:57;5.63;;;3.88;;
34200;SDS011;20469;55.638;37.670;2023-02-28T15:56:31;3.78;;;3.08;;
34200;SDS011;20469;55.638;37.670;2023-02-28T15:59:02;3.65;;;2.13;;
34200;SDS011;20469;55.638;37.670;2023-02-28T16:01:32;4.03;;;2.83;;
34200;SDS011;20469;55.638;37.670;2023-02-28T16:04:05;3.92;;;2.42;;
34200;SDS011;20469;55.638;37.670;2023-02-28T16:06:42;4.55;;;2.78;;
34200;SDS011;20469;55.638;37.670;2023-02-28T16:09:26;3.45;;;2.80;;
34200;SDS011;20469;55.638;37.670;2023-02-28T16:11:58;3.97;;;2.95;;
34200;SDS011;20469;55.638;37.670;2023-02-28T16:14:28;3.83;;;2.72;;
34200;SDS011;20469;55.638;37.670;2023-02-28T16:17:04;5.72;;;3.35;;
34200;SDS011;20469;55.638;37.670;2023-02-28T16:19:35;4.82;;;2.90;;
34200;SDS011;20469;55.638;37.670;2023-02-28T16:22:03;6.60;;;3.08;;
34200;SDS011;20469;55.638;37.670;2023-02-28T16:24:30;5.05;;;2.78;;
34200;SDS011;20469;55.638;37.670;2023-02-28T16:26:58;4.88;;;2.92;;
34200;SDS011;20469;55.638;37.670;2023-02-28T16:29:28;4.07;;;2.83;;
34200;SDS011;20469;55.638;37.670;2023-02-28T16:31:58;4.57;;;3.35;;
34200;SDS011;20469;55.638;37.670;2023-02-28T16:34:27;5.30;;;3.20;;
34200;SDS011;20469;55.638;37.670;2023-02-28T16:36:55;3.97;;;2.78;;
34200;SDS011;20469;55.638;37.670;2023-02-28T16:39:22;4.25;;;2.80;;
34200;SDS011;20469;55.638;37.670;2023-02-28T16:41:50;4.72;;;2.63;;
34200;SDS011;20469;55.638;37.670;2023-02-28T16:46:56;3.60;;;2.45;;
34200;SDS011;20469;55.638;37.670;2023-02-28T16:49:26;6.30;;;2.45;;
34200;SDS011;20469;55.638;37.670;2023-02-28T16:51:54;4.28;;;2.50;;
34200;SDS011;20469;55.638;37.670;2023-02-28T16:54:22;5.38;;;2.90;;
34200;SDS011;20469;55.638;37.670;2023-02-28T16:56:50;3.83;;;2.70;;
34200;SDS011;20469;55.638;37.670;2023-02-28T16:59:19;4.03;;;2.70;;
34200;SDS011;20469;55.638;37.670;2023-02-28T17:01:51;3.42;;;2.40;;
34200;SDS011;20469;55.638;37.670;2023-02-28T17:04:20;3.05;;;2.10;;
34200;SDS011;20469;55.638;37.670;2023-02-28T17:06:49;3.22;;;2.42;;
34200;SDS011;20469;55.638;37.670;2023-02-28T17:09:18;2.88;;;2.58;;
34200;SDS011;20469;55.638;37.670;2023-02-28T17:11:56;5.05;;;2.88;;
34200;SDS011;20469;55.638;37.670;2023-02-28T17:14:24;4.55;;;2.65;;
34200;SDS011;20469;55.638;37.670;2023-02-28T17:16:51;3.88;;;2.40;;
34200;SDS011;20469;55.638;37.670;2023-02-28T17:19:19;4.07;;;2.60;;
34200;SDS011;20469;55.638;37.670;2023-02-28T17:21:49;3.78;;;2.30;;
34200;SDS011;20469;55.638;37.670;2023-02-28T17:24:17;4.82;;;2.40;;
34200;SDS011;20469;55.638;37.670;2023-02-28T17:26:56;3.42;;;2.30;;
34200;SDS011;20469;55.638;37.670;2023-02-28T17:29:24;4.13;;;2.50;;
34200;SDS011;20469;55.638;37.670;2023-02-28T17:31:52;3.38;;;2.65;;
34200;SDS011;20469;55.638;37.670;2023-02-28T17:34:19;3.10;;;2.20;;
34200;SDS011;20469;55.638;37.670;2023-02-28T17:36:49;3.15;;;2.25;;
34200;SDS011;20469;55.638;37.670;2023-02-28T17:39:18;4.82;;;2.20;;
34200;SDS011;20469;55.638;37.670;2023-02-28T17:41:51;3.03;;;1.80;;
34200;SDS011;20469;55.638;37.670;2023-02-28T17:44:21;2.28;;;1.77;;
34200;SDS011;20469;55.638;37.670;2023-02-28T17:46:50;2.78;;;1.77;;
34200;SDS011;20469;55.638;37.670;2023-02-28T17:49:20;3.00;;;1.40;;
34200;SDS011;20469;55.638;37.670;2023-02-28T17:51:48;3.10;;;1.60;;
34200;SDS011;20469;55.638;37.670;2023-02-28T17:54:17;2.40;;;1.40;;
34200;SDS011;20469;55.638;37.670;2023-02-28T17:56:44;2.88;;;1.35;;
34200;SDS011;20469;55.638;37.670;2023-02-28T17:59:13;1.55;;;1.10;;
34200;SDS011;20469;55.638;37.670;2023-02-28T18:01:41;2.22;;;1.20;;
34200;SDS011;20469;55.638;37.670;2023-02-28T18:04:08;3.05;;;1.20;;
34200;SDS011;20469;55.638;37.670;2023-02-28T18:06:40;2.67;;;1.30;;
34200;SDS011;20469;55.638;37.670;2023-02-28T18:09:19;2.60;;;1.60;;
34200;SDS011;20469;55.638;37.670;2023-02-28T18:11:51;2.45;;;1.20;;
34200;SDS011;20469;55.638;37.670;2023-02-28T18:14:20;3.55;;;1.48;;
34200;SDS011;20469;55.638;37.670;2023-02-28T18:16:52;2.00;;;0.90;;
34200;SDS011;20469;55.638;37.670;2023-02-28T18:19:22;3.08;;;1.20;;
34200;SDS011;20469;55.638;37.670;2023-02-28T18:21:51;2.20;;;1.00;;
34200;SDS011;20469;55.638;37.670;2023-02-28T18:24:26;1.60;;;0.77;;
34200;SDS011;20469;55.638;37.670;2023-02-28T18:26:54;3.85;;;0.82;;